Time;durP1;ratioP1;P1;durP2;ratioP2;P2;SDS_P1;SDS_P2;PMS_P1;PMS_P2;Temp;Humidity;BMP_temperature;BMP_pressure;BME280_temperature;BME280_humidity;BME280_pressure;Samples;Min_cycle;Max_cycle;Signal;HPM_P1;HPM_P2
2022/07/05 00:01:09;;;;;;;17.62;6.95;;;;;;;19.64;64.68;100102.43;1813462;79;21177;-81
2022/07/05 00:04:13;;;;;;;16.77;6.37;;;;;;;19.66;64.90;100104.41;1813340;79;21259;-82
2022/07/05 00:07:19;;;;;;;15.90;6.92;;;;;;;19.66;64.97;100103.86;1811824;79;21168;-82
2022/07/05 00:10:24;;;;;;;14.23;5.83;;;;;;;19.66;65.26;100098.31;1813448;79;21164;-81
2022/07/05 00:13:29;;;;;;;10.88;6.30;;;;;;;19.64;65.34;100096.33;1813364;79;21708;-82
2022/07/05 00:16:34;;;;;;;13.78;6.60;;;;;;;19.63;65.51;100101.59;1812760;79;21235;-82
2022/07/05 00:19:43;;;;;;;11.00;6.08;;;;;;;19.63;65.74;100104.36;1813357;79;21176;-82
2022/07/05 00:22:48;;;;;;;21.35;6.55;;;;;;;19.64;65.92;100099.66;1813472;79;21180;-82
2022/07/05 00:25:53;;;;;;;10.23;6.47;;;;;;;19.63;66.21;100103.52;1813450;79;21165;-82
2022/07/05 00:28:59;;;;;;;17.98;6.95;;;;;;;19.60;66.68;100099.28;1808701;79;21264;-82
2022/07/05 00:32:06;;;;;;;12.07;6.67;;;;;;;19.54;66.99;100093.28;1802496;79;21227;-82
2022/07/05 00:35:14;;;;;;;15.50;6.87;;;;;;;19.47;67.66;100087.54;1800966;79;21204;-82
2022/07/05 00:38:20;;;;;;;14.90;6.33;;;;;;;19.41;68.23;100093.52;1801241;79;21209;-82
2022/07/05 00:41:26;;;;;;;10.58;6.70;;;;;;;19.36;68.56;100096.16;1802961;79;22602;-82
2022/07/05 00:44:41;;;;;;;13.00;6.85;;;;;;;19.34;68.73;100097.80;1802690;79;21203;-82
2022/07/05 00:47:46;;;;;;;20.45;6.72;;;;;;;19.35;69.13;100095.87;1802148;79;21184;-82
2022/07/05 00:50:53;;;;;;;15.50;7.33;;;;;;;19.36;69.38;100096.16;1802792;79;21177;-82
2022/07/05 00:53:59;;;;;;;13.60;6.85;;;;;;;19.37;69.70;100093.69;1802759;79;21236;-82
2022/07/05 00:57:05;;;;;;;19.65;8.05;;;;;;;19.37;69.99;100097.30;1802438;79;21267;-82
2022/07/05 01:00:15;;;;;;;12.37;7.65;;;;;;;19.38;70.22;100099.53;1802713;79;21209;-82
2022/07/05 01:03:21;;;;;;;15.18;8.53;;;;;;;19.39;70.38;100100.70;1785538;79;21253;-81
2022/07/05 01:06:26;;;;;;;18.07;7.85;;;;;;;19.40;70.54;100104.31;1802742;79;21181;-82
2022/07/05 01:09:32;;;;;;;17.00;8.55;;;;;;;19.39;70.77;100102.08;1785623;79;21149;-82
2022/07/05 01:12:39;;;;;;;16.35;8.15;;;;;;;19.38;71.22;100100.40;1794456;79;21214;-82
2022/07/05 01:15:45;;;;;;;16.87;8.85;;;;;;;19.35;71.61;100102.25;1800837;79;21173;-82
2022/07/05 01:18:51;;;;;;;24.67;8.80;;;;;;;19.33;71.65;100104.40;1801214;79;21235;-81
2022/07/05 01:21:56;;;;;;;20.05;9.43;;;;;;;19.30;71.91;100105.45;1791862;79;21175;-82
2022/07/05 01:25:02;;;;;;;15.48;8.85;;;;;;;19.28;72.26;100100.66;1771104;81;21190;-82
2022/07/05 01:28:08;;;;;;;18.12;8.58;;;;;;;19.27;72.42;100102.59;1770405;81;21242;-82
2022/07/05 01:31:13;;;;;;;17.00;7.60;;;;;;;19.26;71.72;100103.69;1776319;80;21281;-82
2022/07/05 01:34:18;;;;;;;18.12;10.28;;;;;;;19.23;71.55;100100.53;1784443;80;21216;-82
2022/07/05 01:37:25;;;;;;;23.10;11.30;;;;;;;19.18;72.05;100095.70;1784651;80;21237;-82
2022/07/05 01:40:31;;;;;;;19.37;10.68;;;;;;;19.19;72.93;100086.84;1784937;80;21244;-82
2022/07/05 01:43:36;;;;;;;19.25;9.63;;;;;;;19.19;73.31;100093.23;1784702;80;21200;-82
2022/07/05 01:46:42;;;;;;;18.90;10.95;;;;;;;19.19;73.54;100088.23;1785177;79;21785;-82
2022/07/05 01:49:50;;;;;;;20.17;10.93;;;;;;;19.21;73.95;100091.63;1784029;80;21206;-81
2022/07/05 01:52:56;;;;;;;19.32;10.82;;;;;;;19.23;74.04;100089.44;1767532;80;21167;-82
2022/07/05 01:56:17;;;;;;;23.55;10.72;;;;;;;19.24;74.09;100092.52;1783316;80;21882;-82
2022/07/05 01:59:22;;;;;;;30.00;11.25;;;;;;;19.26;74.17;100088.98;1783522;80;21810;-82
2022/07/05 02:02:28;;;;;;;19.45;11.40;;;;;;;19.28;74.20;100093.73;1785421;79;21179;-82
2022/07/05 02:05:35;;;;;;;22.02;11.20;;;;;;;19.37;74.05;100095.07;1784193;80;21211;-82
2022/07/05 02:08:42;;;;;;;20.27;10.65;;;;;;;19.55;73.62;100097.74;1763136;80;21229;-82
2022/07/05 02:11:50;;;;;;;19.20;10.20;;;;;;;19.78;72.95;100093.32;1785424;79;21227;-82
2022/07/05 02:14:58;;;;;;;23.25;11.28;;;;;;;20.08;71.93;100098.16;1784847;80;21166;-83
2022/07/05 02:18:03;;;;;;;15.95;9.50;;;;;;;20.40;70.71;100104.13;1784552;80;21820;-82
2022/07/05 02:21:10;;;;;;;14.33;9.45;;;;;;;20.73;69.35;100108.16;1783464;80;21229;-81
2022/07/05 02:24:16;;;;;;;22.70;10.82;;;;;;;21.01;67.72;100097.58;1783336;80;21738;-82
2022/07/05 02:27:24;;;;;;;15.03;8.60;;;;;;;21.28;66.38;100099.73;1783195;80;21186;-82
2022/07/05 02:30:30;;;;;;;19.42;9.45;;;;;;;21.56;65.28;100103.85;1784733;80;21731;-82
2022/07/05 02:33:36;;;;;;;20.37;9.63;;;;;;;21.90;64.35;100108.83;1785235;79;21799;-82
2022/07/05 02:36:41;;;;;;;19.65;9.63;;;;;;;22.32;63.02;100114.45;1783309;79;21287;-81
2022/07/05 02:39:48;;;;;;;14.45;8.63;;;;;;;22.76;61.60;100115.82;1783401;80;21232;-82
2022/07/05 02:42:55;;;;;;;15.93;8.95;;;;;;;23.21;59.99;100116.34;1798670;79;21157;-82
2022/07/05 02:46:01;;;;;;;16.77;9.90;;;;;;;23.58;58.42;100113.33;1816900;79;21173;-82
2022/07/05 02:49:07;;;;;;;14.10;8.30;;;;;;;23.97;57.13;100119.50;1816239;79;21724;-81
2022/07/05 02:52:13;;;;;;;13.62;8.10;;;;;;;24.43;55.67;100111.41;1815880;79;21219;-81
2022/07/05 02:55:19;;;;;;;14.28;8.78;;;;;;;24.90;54.04;100111.85;1816717;79;21204;-82
2022/07/05 02:58:28;;;;;;;20.05;8.10;;;;;;;25.39;52.58;100109.98;1815830;79;21311;-82
2022/07/05 03:01:37;;;;;;;11.50;7.87;;;;;;;25.85;51.36;100110.00;1795776;79;21784;-81
2022/07/05 03:04:44;;;;;;;16.57;7.80;;;;;;;26.34;50.00;100112.95;1804918;79;21181;-81
2022/07/05 03:07:50;;;;;;;13.68;7.50;;;;;;;26.81;48.69;100108.02;1806312;79;21169;-81
2022/07/05 03:10:57;;;;;;;13.15;7.58;;;;;;;27.18;47.49;100109.78;1784770;80;21219;-82
2022/07/05 03:14:03;;;;;;;17.67;7.60;;;;;;;27.48;46.51;100114.92;1784806;80;21180;-82
2022/07/05 03:17:10;;;;;;;16.95;7.10;;;;;;;27.72;45.62;100115.86;1781911;80;21232;-82
2022/07/05 03:20:18;;;;;;;17.95;7.60;;;;;;;27.88;45.25;100119.92;1801266;79;21707;-81
2022/07/05 03:23:25;;;;;;;13.62;7.12;;;;;;;28.00;44.91;100118.40;1797757;79;21181;-81
2022/07/05 03:26:31;;;;;;;13.68;7.10;;;;;;;28.09;44.75;100120.54;1796744;80;21173;-81
2022/07/05 03:29:37;;;;;;;14.07;6.25;;;;;;;28.18;44.47;100126.65;1796796;80;21166;-81
2022/07/05 03:32:44;;;;;;;18.10;6.83;;;;;;;28.19;44.30;100123.27;1793653;80;22489;-81
2022/07/05 03:35:43;;;;;;;11.10;6.62;;;;;;;28.20;44.29;100127.17;1785633;80;21284;-81
2022/07/05 03:38:48;;;;;;;18.57;6.60;;;;;;;28.28;44.35;100122.89;1786962;80;21174;-81
2022/07/05 03:41:56;;;;;;;14.40;7.03;;;;;;;28.43;44.03;100131.17;1786874;80;21178;-81
2022/07/05 03:45:02;;;;;;;11.97;6.97;;;;;;;28.87;43.45;100133.42;1786816;80;21182;-81
2022/07/05 03:48:09;;;;;;;13.45;6.28;;;;;;;28.87;43.45;100133.42;1786862;80;21193;-81
2022/07/05 03:51:20;;;;;;;10.82;6.25;;;;;;;29.07;42.92;100130.34;1786842;80;21550;-81
2022/07/05 03:54:27;;;;;;;11.05;6.20;;;;;;;29.23;42.24;100129.57;1786867;80;21220;-79
2022/07/05 03:57:32;;;;;;;13.45;6.80;;;;;;;29.31;41.79;100126.61;1786984;80;22258;-81
2022/07/05 04:00:38;;;;;;;14.63;6.83;;;;;;;29.34;41.77;100123.20;1786018;80;21217;-81
2022/07/05 04:03:45;;;;;;;11.45;7.00;;;;;;;29.37;41.83;100114.14;1786747;80;21166;-81
2022/07/05 04:06:53;;;;;;;15.48;7.25;;;;;;;29.37;41.69;100121.19;1786352;80;21197;-81
2022/07/05 04:10:00;;;;;;;9.25;6.45;;;;;;;29.43;41.87;100125.59;1786455;80;21755;-81
2022/07/05 04:13:07;;;;;;;17.80;7.05;;;;;;;29.47;41.69;100121.02;1786577;80;21760;-81
2022/07/05 04:16:14;;;;;;;11.57;6.70;;;;;;;29.41;41.61;100125.07;1786892;80;21162;-81
2022/07/05 04:19:23;;;;;;;14.30;6.85;;;;;;;29.32;41.88;100128.31;1786882;80;21225;-81
2022/07/05 04:22:30;;;;;;;9.80;6.30;;;;;;;29.23;42.23;100128.99;1786206;80;21233;-81
2022/07/05 04:25:37;;;;;;;11.68;6.62;;;;;;;29.14;42.24;100125.19;1786802;80;21166;-80
2022/07/05 04:28:53;;;;;;;14.65;6.95;;;;;;;29.08;42.49;100122.19;1786851;80;21182;-81
2022/07/05 04:31:49;;;;;;;11.83;6.70;;;;;;;29.07;42.68;100133.16;1786935;80;22426;-81
2022/07/05 04:34:36;;;;;;;11.83;7.10;;;;;;;29.07;42.64;100130.34;1789353;80;22666;-81
2022/07/05 04:37:28;;;;;;;8.03;6.62;;;;;;;29.04;42.90;100133.79;1791811;80;21803;-81
2022/07/05 04:40:15;;;;;;;16.50;5.97;;;;;;;29.01;43.10;100131.57;1792265;80;21210;-81
2022/07/05 04:43:07;;;;;;;14.98;6.70;;;;;;;28.97;43.33;100129.09;1764051;80;21225;-81
2022/07/05 04:46:13;;;;;;;13.13;7.13;;;;;;;28.93;43.52;100123.19;1792644;80;21169;-81
2022/07/05 04:49:19;;;;;;;12.53;6.17;;;;;;;29.05;43.60;100128.99;1792400;80;21438;-81
2022/07/05 04:52:26;;;;;;;18.87;5.80;;;;;;;29.17;43.21;100138.67;1792122;80;21205;-81
2022/07/05 04:55:32;;;;;;;20.43;6.17;;;;;;;29.24;42.56;100144.74;1792630;80;21186;-81
2022/07/05 04:58:38;;;;;;;21.77;6.50;;;;;;;29.26;42.32;100134.00;1791866;80;21225;-81
2022/07/05 05:01:44;;;;;;;20.55;6.90;;;;;;;29.28;42.42;100140.75;1791239;80;21213;-81
2022/07/05 05:04:51;;;;;;;34.45;8.93;;;;;;;29.27;41.90;100141.33;1792572;80;21185;-81
2022/07/05 05:07:59;;;;;;;17.37;6.90;;;;;;;29.37;41.72;100133.86;1792084;80;21252;-81
2022/07/05 05:11:06;;;;;;;11.03;5.40;;;;;;;29.37;41.72;100133.86;1791369;80;21189;-81
2022/07/05 05:14:11;;;;;;;14.83;6.15;;;;;;;29.29;41.70;100136.22;1792492;80;21566;-81
2022/07/05 05:17:18;;;;;;;11.73;5.75;;;;;;;29.33;41.51;100132.80;1792312;80;21174;-81
2022/07/05 05:20:25;;;;;;;18.35;5.58;;;;;;;29.33;41.51;100132.80;1792691;80;21228;-81
2022/07/05 05:23:32;;;;;;;17.57;5.90;;;;;;;29.50;41.50;100137.29;1791749;80;21260;-81
2022/07/05 05:26:38;;;;;;;12.73;5.00;;;;;;;29.50;41.50;100137.29;1792909;80;21181;-81
2022/07/05 05:29:45;;;;;;;9.73;5.60;;;;;;;29.64;40.62;100142.47;1792130;80;21169;-81
2022/07/05 05:32:44;;;;;;;10.30;6.00;;;;;;;29.70;40.49;100135.59;1790639;80;21334;-81
2022/07/05 05:35:50;;;;;;;15.20;5.65;;;;;;;29.79;40.54;100135.16;1785552;80;21209;-81
2022/07/05 05:38:58;;;;;;;13.90;5.30;;;;;;;29.88;40.45;100133.02;1785049;80;21328;-81
2022/07/05 05:42:05;;;;;;;13.15;5.22;;;;;;;29.91;40.30;100136.64;1785026;80;21234;-81
2022/07/05 05:45:10;;;;;;;8.73;4.42;;;;;;;30.03;39.46;100131.35;1786511;80;21197;-82
2022/07/05 05:48:18;;;;;;;9.98;4.62;;;;;;;30.19;39.96;100141.80;1786421;80;21865;-82
2022/07/05 05:51:24;;;;;;;10.15;5.30;;;;;;;30.26;39.12;100143.06;1786059;80;21186;-82
2022/07/05 05:54:29;;;;;;;11.38;5.00;;;;;;;30.33;39.29;100144.05;1784784;80;21221;-81
2022/07/05 05:57:36;;;;;;;9.10;4.35;;;;;;;30.49;38.85;100138.39;1786593;80;21209;-81
2022/07/05 06:00:42;;;;;;;6.85;4.47;;;;;;;30.59;38.82;100141.57;1786800;80;21248;-82
2022/07/05 06:03:47;;;;;;;8.35;4.40;;;;;;;30.65;38.33;100149.35;1786851;80;21158;-82
2022/07/05 06:06:54;;;;;;;9.33;4.67;;;;;;;30.67;38.35;100140.81;1786983;80;21189;-81
2022/07/05 06:10:01;;;;;;;6.87;4.10;;;;;;;30.78;38.65;100133.85;1785635;80;21190;-81
2022/07/05 06:13:09;;;;;;;9.68;4.22;;;;;;;30.92;38.09;100138.65;1785754;80;21796;-81
2022/07/05 06:16:17;;;;;;;9.35;4.17;;;;;;;30.93;37.98;100134.66;1786894;80;21170;-81
2022/07/05 06:19:22;;;;;;;12.50;4.87;;;;;;;30.89;37.86;100134.45;1787304;80;21947;-81
2022/07/05 06:22:29;;;;;;;9.20;4.50;;;;;;;30.90;37.83;100141.77;1786101;80;21444;-81
2022/07/05 06:25:36;;;;;;;11.35;4.58;;;;;;;30.92;37.55;100130.18;1787360;80;21907;-81
2022/07/05 06:28:42;;;;;;;11.80;4.58;;;;;;;30.95;37.60;100127.53;1786710;80;21221;-81
2022/07/05 06:31:50;;;;;;;9.00;3.72;;;;;;;31.08;37.29;100126.42;1786649;80;21177;-81
2022/07/05 06:34:57;;;;;;;6.85;4.62;;;;;;;31.23;36.56;100129.71;1786867;80;21174;-81
2022/07/05 06:38:08;;;;;;;6.30;3.95;;;;;;;31.37;35.99;100126.88;1786751;80;21260;-81
2022/07/05 06:41:14;;;;;;;6.83;4.05;;;;;;;31.54;35.86;100121.95;1786806;80;21764;-81
2022/07/05 06:44:21;;;;;;;12.30;4.45;;;;;;;31.59;36.21;100119.00;1785480;80;21181;-81
2022/07/05 06:47:29;;;;;;;7.67;4.22;;;;;;;31.59;35.73;100113.34;1785423;80;21177;-81
2022/07/05 06:50:37;;;;;;;5.50;3.98;;;;;;;31.66;35.76;100111.47;1786912;80;21763;-81
2022/07/05 06:53:43;;;;;;;9.30;4.08;;;;;;;31.71;35.19;100119.81;1785590;80;21189;-81
2022/07/05 06:56:59;;;;;;;6.12;3.65;;;;;;;31.55;35.00;100113.72;1788293;80;21170;-82
2022/07/05 07:00:08;;;;;;;7.70;3.95;;;;;;;31.52;34.55;100118.59;1787717;80;21202;-81
2022/07/05 07:03:23;;;;;;;7.58;4.30;;;;;;;31.58;34.68;100111.67;1786545;80;21160;-82
2022/07/05 07:06:33;;;;;;;12.30;4.25;;;;;;;31.66;34.74;100108.64;1785607;80;21186;-81
2022/07/05 07:09:38;;;;;;;5.37;4.05;;;;;;;31.75;34.63;100114.61;1786153;80;21221;-81
2022/07/05 07:12:44;;;;;;;6.53;3.67;;;;;;;31.92;34.66;100104.02;1795589;79;21276;-81
2022/07/05 07:15:52;;;;;;;8.00;3.12;;;;;;;32.11;33.49;100105.80;1801698;79;21807;-81
2022/07/05 07:19:04;;;;;;;7.75;3.83;;;;;;;32.15;31.88;100108.23;1801627;79;21740;-81
2022/07/05 07:22:12;;;;;;;14.05;3.95;;;;;;;32.09;32.03;100108.09;1801901;79;21137;-81
2022/07/05 07:25:23;;;;;;;9.50;3.67;;;;;;;32.16;32.50;100105.64;1801497;79;21248;-81
2022/07/05 07:28:34;;;;;;;5.78;3.85;;;;;;;32.22;32.91;100105.16;1802467;79;21229;-81
2022/07/05 07:31:45;;;;;;;7.65;4.42;;;;;;;32.38;33.24;100111.27;1801120;79;21748;-81
2022/07/05 07:34:58;;;;;;;7.50;3.98;;;;;;;32.44;33.05;100111.95;1802573;79;21185;-81
2022/07/05 07:38:04;;;;;;;10.68;3.67;;;;;;;32.45;33.18;100110.20;1800047;79;21243;-81
2022/07/05 07:41:11;;;;;;;9.45;3.87;;;;;;;32.58;32.22;100109.01;1800358;79;21315;-81
2022/07/05 07:44:18;;;;;;;9.68;3.10;;;;;;;32.74;32.17;100117.28;1800938;79;21217;-82
2022/07/05 07:47:24;;;;;;;8.50;4.17;;;;;;;32.80;29.16;100114.57;1802643;79;21862;-81
2022/07/05 07:50:29;;;;;;;8.20;2.95;;;;;;;32.72;29.55;100113.38;1802431;79;21169;-81
2022/07/05 07:53:35;;;;;;;5.12;3.37;;;;;;;32.67;29.32;100119.78;1802038;79;21161;-82
2022/07/05 07:56:41;;;;;;;6.05;2.92;;;;;;;32.53;28.72;100113.66;1801231;79;21791;-81
2022/07/05 07:59:46;;;;;;;4.70;3.30;;;;;;;32.39;29.10;100101.62;1801040;79;21218;-81
2022/07/05 08:02:55;;;;;;;8.28;2.90;;;;;;;32.30;29.80;100105.80;1802295;79;21830;-81
2022/07/05 08:06:01;;;;;;;13.90;3.17;;;;;;;32.35;29.70;100109.64;1801360;79;21189;-81
2022/07/05 08:09:07;;;;;;;8.78;3.40;;;;;;;32.34;29.18;100108.81;1803241;79;21657;-82
2022/07/05 08:12:16;;;;;;;8.08;2.95;;;;;;;32.36;29.08;100113.55;1802950;79;21177;-81
2022/07/05 08:15:22;;;;;;;10.32;3.12;;;;;;;32.46;28.06;100106.79;1802041;79;21157;-81
2022/07/05 08:21:50;;;;;;;7.03;2.70;;;;;;;32.55;26.78;100103.41;1801810;79;21775;-81
2022/07/05 08:24:57;;;;;;;6.17;2.83;;;;;;;32.63;27.89;100102.61;1800299;79;21221;-81
2022/07/05 08:28:02;;;;;;;6.78;3.40;;;;;;;32.69;27.83;100105.53;1801736;79;21169;-81
2022/07/05 08:31:07;;;;;;;4.45;3.27;;;;;;;32.73;28.14;100098.05;1801667;79;21201;-81
2022/07/05 08:34:12;;;;;;;4.37;2.50;;;;;;;32.70;27.78;100102.97;1801801;79;21252;-81
2022/07/05 08:37:19;;;;;;;5.17;3.15;;;;;;;32.70;27.02;100097.31;1801165;79;21220;-82
2022/07/05 08:40:24;;;;;;;6.75;3.25;;;;;;;32.60;26.67;100106.09;1802457;79;21181;-81
2022/07/05 08:43:31;;;;;;;3.30;2.75;;;;;;;32.34;27.23;100103.73;1802214;79;21221;-82
2022/07/05 08:46:37;;;;;;;6.85;3.20;;;;;;;32.26;27.16;100099.70;1802501;79;21458;-82
2022/07/05 08:49:44;;;;;;;6.70;2.92;;;;;;;32.33;27.27;100106.31;1802497;79;21232;-81
2022/07/05 08:52:49;;;;;;;7.08;3.30;;;;;;;32.41;27.34;100087.96;1802382;79;21185;-81
2022/07/05 08:55:56;;;;;;;5.28;2.98;;;;;;;32.45;27.33;100091.80;1802178;79;21279;-81
2022/07/05 08:59:02;;;;;;;5.37;3.27;;;;;;;32.52;26.93;100097.01;1801738;79;21256;-81
2022/07/05 09:02:01;;;;;;;5.37;2.90;;;;;;;32.56;26.94;100090.95;1801176;79;21177;-82
2022/07/05 09:04:54;;;;;;;5.20;3.05;;;;;;;32.73;26.91;100088.14;1801556;79;21302;-81
2022/07/05 09:07:43;;;;;;;5.80;3.25;;;;;;;32.88;25.76;100098.73;1805640;79;21161;-82
2022/07/05 09:10:45;;;;;;;7.78;3.33;;;;;;;32.96;25.44;100091.70;1802366;79;21216;-82
2022/07/05 09:14:34;;;;;;;4.03;3.02;;;;;;;33.01;25.17;100091.55;1798853;79;21252;-82
2022/07/05 09:22:31;;;;;;;3.80;2.95;;;;;;;33.16;25.15;100077.47;1684695;85;21224;-82
2022/07/05 09:25:39;;;;;;;5.58;3.60;;;;;;;33.35;26.28;100091.30;1683301;85;21831;-82
2022/07/05 09:28:53;;;;;;;7.62;2.90;;;;;;;33.39;25.72;100083.80;1684246;85;21248;-81
2022/07/05 09:32:14;;;;;;;10.23;3.55;;;;;;;33.39;25.28;100084.39;1683161;85;21359;-82
2022/07/05 09:35:29;;;;;;;6.25;3.02;;;;;;;33.26;25.57;100084.21;1682577;85;21222;-81
2022/07/05 09:38:34;;;;;;;2.70;2.50;;;;;;;33.35;25.07;100082.80;1680945;85;21289;-81
2022/07/05 09:41:39;;;;;;;5.22;2.80;;;;;;;33.41;24.23;100072.98;1684579;85;21375;-81
2022/07/05 09:45:01;;;;;;;4.85;3.20;;;;;;;33.46;24.16;100079.09;1684365;85;21281;-81
2022/07/05 09:48:07;;;;;;;5.45;3.47;;;;;;;33.51;24.58;100081.16;1684914;85;21796;-81
2022/07/05 09:51:18;;;;;;;4.85;3.25;;;;;;;33.44;24.61;100075.16;1684780;85;21368;-81
2022/07/05 09:54:25;;;;;;;13.62;3.12;;;;;;;33.37;25.17;100071.15;1685241;85;21234;-81
2022/07/05 09:57:33;;;;;;;5.70;2.90;;;;;;;33.30;24.96;100076.71;1708571;81;21205;-81
2022/07/05 10:00:38;;;;;;;5.22;2.90;;;;;;;33.23;25.62;100074.98;1776322;81;21178;-82
2022/07/05 10:04:02;;;;;;;4.58;2.92;;;;;;;33.24;25.83;100066.72;1776240;81;21194;-82
2022/07/05 10:07:09;;;;;;;4.10;2.95;;;;;;;33.21;25.90;100068.80;1774443;81;21249;-81
2022/07/05 10:10:15;;;;;;;5.87;3.02;;;;;;;33.24;26.03;100068.14;1776269;81;21229;-81
2022/07/05 10:13:22;;;;;;;5.37;3.08;;;;;;;33.30;26.21;100059.70;1776729;81;21166;-81
2022/07/05 10:16:29;;;;;;;7.47;3.20;;;;;;;33.32;25.85;100058.81;1775624;81;21204;-82
2022/07/05 10:19:39;;;;;;;9.60;3.17;;;;;;;33.27;25.05;100073.16;1776474;81;21162;-81
2022/07/05 10:22:46;;;;;;;9.08;3.55;;;;;;;33.17;24.97;100057.91;1782944;79;21187;-81
2022/07/05 10:25:53;;;;;;;6.87;3.02;;;;;;;32.96;25.06;100049.22;1810390;79;21248;-81
2022/07/05 10:28:56;;;;;;;3.92;2.90;;;;;;;32.86;25.42;100054.35;1810039;79;21200;-81
2022/07/05 10:32:02;;;;;;;7.08;2.62;;;;;;;32.88;24.71;100047.77;1811884;79;21173;-82
2022/07/05 10:35:06;;;;;;;3.72;2.90;;;;;;;32.90;24.63;100046.86;1811225;79;21724;-81
2022/07/05 10:38:13;;;;;;;8.10;3.70;;;;;;;32.91;24.64;100045.14;1811444;79;21171;-81
2022/07/05 10:41:25;;;;;;;8.78;4.12;;;;;;;32.94;25.33;100046.48;1751996;79;21208;-81
2022/07/05 10:44:42;;;;;;;6.67;3.65;;;;;;;32.91;26.22;100037.23;1816343;79;21207;-81
2022/07/05 10:47:51;;;;;;;5.95;3.37;;;;;;;32.98;26.28;100040.37;1816713;79;21173;-82
2022/07/05 10:51:07;;;;;;;7.92;3.80;;;;;;;33.16;25.66;100038.38;1775118;79;21273;-81
2022/07/05 10:54:12;;;;;;;12.47;3.65;;;;;;;33.31;25.55;100044.39;1817442;79;21767;-81
2022/07/05 10:57:30;;;;;;;7.20;3.58;;;;;;;33.48;26.07;100044.14;1816147;79;21205;-81
2022/07/05 11:00:36;;;;;;;7.22;3.60;;;;;;;33.49;25.54;100040.13;1817640;79;21160;-81
2022/07/05 11:03:49;;;;;;;4.67;3.60;;;;;;;33.38;25.82;100034.55;1816618;79;21240;-81
2022/07/05 11:06:55;;;;;;;7.55;3.98;;;;;;;33.27;25.96;100027.81;1815035;79;21251;-81
2022/07/05 11:10:08;;;;;;;7.17;3.90;;;;;;;33.21;26.76;100036.21;1817392;79;21141;-81
2022/07/05 11:13:40;;;;;;;7.00;3.92;;;;;;;33.25;26.61;100042.05;1817195;79;21188;-81
2022/07/05 11:16:45;;;;;;;7.12;3.70;;;;;;;33.29;26.56;100038.80;1815262;79;21208;-82
2022/07/05 11:20:21;;;;;;;10.28;3.60;;;;;;;33.25;26.34;100038.62;1815698;79;21200;-81
2022/07/05 11:23:32;;;;;;;9.00;3.95;;;;;;;33.35;25.83;100028.11;1815556;79;21189;-81
2022/07/05 11:26:38;;;;;;;10.70;3.52;;;;;;;33.45;26.10;100034.88;1815698;79;21223;-81
2022/07/05 11:29:51;;;;;;;21.75;4.75;;;;;;;33.40;26.01;100033.61;1815177;79;21204;-81
2022/07/05 11:32:51;;;;;;;7.75;4.58;;;;;;;33.16;26.35;100027.05;1816533;79;21548;-81
2022/07/05 11:35:49;;;;;;;6.62;4.00;;;;;;;32.95;26.76;100018.41;1815710;79;21192;-80
2022/07/05 11:38:43;;;;;;;5.53;3.42;;;;;;;32.85;26.75;100027.20;1816415;79;21211;-81
2022/07/05 11:41:38;;;;;;;7.42;3.77;;;;;;;32.80;26.03;100026.20;1779981;79;21189;-81
2022/07/05 11:44:46;;;;;;;6.35;3.83;;;;;;;32.81;26.46;100021.36;1732008;82;21736;-81
2022/07/05 11:47:56;;;;;;;12.90;3.92;;;;;;;32.87;26.06;100024.86;1743419;81;21196;-81
2022/07/05 11:51:02;;;;;;;5.22;4.15;;;;;;;32.86;26.30;100026.03;1763454;81;21184;-81
2022/07/05 11:54:10;;;;;;;6.85;4.05;;;;;;;32.90;25.95;100015.71;1775671;81;21237;-81
2022/07/05 11:57:17;;;;;;;6.78;3.75;;;;;;;32.97;26.04;100011.81;1773231;81;21184;-81
2022/07/05 12:00:23;;;;;;;7.28;3.80;;;;;;;32.99;25.94;100008.08;1734951;81;21220;-81
2022/07/05 12:03:29;;;;;;;6.08;3.45;;;;;;;32.95;25.49;100005.66;1769846;81;21252;-81
2022/07/05 12:06:34;;;;;;;6.87;3.50;;;;;;;33.00;25.46;99999.23;1774532;81;21204;-81
2022/07/05 12:13:15;;;;;;;6.87;3.90;;;;;;;33.22;25.88;100003.03;1765044;81;21200;-81
2022/07/05 12:16:22;;;;;;;9.13;3.60;;;;;;;33.19;25.21;100000.89;1774751;81;21197;-81
2022/07/05 12:19:33;;;;;;;5.90;3.87;;;;;;;33.14;25.10;99986.31;1769181;81;21176;-81
2022/07/05 12:22:41;;;;;;;6.78;3.42;;;;;;;33.07;25.32;99989.63;1741393;82;21228;-81
2022/07/05 12:25:47;;;;;;;13.00;4.10;;;;;;;32.99;25.44;99990.50;1760103;81;21192;-81
2022/07/05 12:28:52;;;;;;;8.68;3.37;;;;;;;33.04;25.04;99988.08;1774570;81;21798;-81
2022/07/05 12:32:13;;;;;;;6.17;3.95;;;;;;;33.07;25.16;99988.80;1774607;81;21786;-81
2022/07/05 12:35:35;;;;;;;7.58;3.17;;;;;;;33.09;25.21;99981.41;1774559;81;21245;-81
2022/07/05 12:38:40;;;;;;;5.90;3.85;;;;;;;33.12;25.49;99983.55;1772202;81;21768;-81
2022/07/05 12:41:51;;;;;;;12.03;4.50;;;;;;;33.15;25.34;99979.47;1772261;80;21271;-81
2022/07/05 12:44:57;;;;;;;7.30;3.83;;;;;;;33.17;25.22;99991.32;1776547;80;21770;-81
2022/07/05 12:48:05;;;;;;;5.80;3.52;;;;;;;33.13;25.09;99989.49;1776302;80;21399;-81
2022/07/05 12:51:10;;;;;;;5.55;3.20;;;;;;;33.16;24.87;99983.96;1776951;80;21197;-81
2022/07/05 12:58:03;;;;;;;10.72;3.35;;;;;;;33.35;24.59;99991.27;1776762;80;21251;-81
2022/07/05 13:01:09;;;;;;;7.05;3.58;;;;;;;33.39;24.37;99976.67;1776323;80;21228;-81
2022/07/05 13:04:19;;;;;;;8.78;3.77;;;;;;;33.47;24.57;99968.78;1756730;80;21748;-82
2022/07/05 13:07:33;;;;;;;7.10;3.15;;;;;;;33.54;24.59;99963.41;1777704;80;21221;-81
2022/07/05 13:10:42;;;;;;;4.55;3.05;;;;;;;33.64;24.80;99967.88;1776476;80;21196;-81
2022/07/05 13:13:48;;;;;;;5.42;3.87;;;;;;;33.72;24.59;99969.85;1777615;80;21275;-81
2022/07/05 13:16:54;;;;;;;8.65;3.83;;;;;;;33.68;24.15;99975.95;1776236;80;21252;-81
2022/07/05 13:20:03;;;;;;;5.22;3.42;;;;;;;33.59;24.14;99968.89;1777565;80;21145;-81
2022/07/05 13:23:10;;;;;;;5.28;3.50;;;;;;;33.53;24.44;99968.24;1777841;80;21220;-81
2022/07/05 13:26:22;;;;;;;8.85;3.98;;;;;;;33.45;24.07;99970.52;1778101;80;21821;-81
2022/07/05 13:29:25;;;;;;;7.78;3.60;;;;;;;33.40;23.94;99958.50;1777930;80;21177;-82
2022/07/05 13:32:25;;;;;;;9.27;3.60;;;;;;;33.37;24.10;99960.61;1776583;80;21181;-81
2022/07/05 13:35:30;;;;;;;6.33;3.20;;;;;;;33.35;23.98;99960.09;1777806;80;21227;-81
2022/07/05 13:38:36;;;;;;;5.03;3.37;;;;;;;33.32;24.01;99953.94;1776926;80;21256;-81
2022/07/05 13:41:42;;;;;;;8.40;3.67;;;;;;;33.28;24.06;99954.37;1776336;80;21236;-81
2022/07/05 13:44:49;;;;;;;12.25;3.95;;;;;;;33.28;24.40;99948.70;1774456;80;21228;-81
2022/07/05 13:47:54;;;;;;;8.18;3.50;;;;;;;33.31;24.32;99949.45;1777288;80;21433;-81
2022/07/05 13:51:00;;;;;;;6.10;3.42;;;;;;;33.30;23.69;99955.44;1777583;80;21185;-81
2022/07/05 13:54:06;;;;;;;6.80;3.50;;;;;;;33.23;23.49;99954.55;1777650;80;21196;-81
2022/07/05 13:57:12;;;;;;;6.42;3.80;;;;;;;33.14;23.61;99952.90;1776178;80;21184;-81
2022/07/05 14:00:18;;;;;;;8.55;3.90;;;;;;;33.06;23.97;99953.98;1776064;80;21224;-81
2022/07/05 14:03:25;;;;;;;6.00;3.72;;;;;;;33.01;24.48;99956.16;1777589;80;21215;-81
2022/07/05 14:06:31;;;;;;;6.97;4.00;;;;;;;32.94;24.59;99954.43;1776117;80;21240;-81
2022/07/05 14:09:39;;;;;;;5.00;3.60;;;;;;;32.87;25.40;99948.39;1775929;80;21862;-81
2022/07/05 14:12:45;;;;;;;9.05;3.77;;;;;;;32.85;25.84;99947.32;1777509;80;21724;-81
2022/07/05 14:15:51;;;;;;;6.08;3.92;;;;;;;32.80;25.92;99948.32;1770681;81;21221;-81
2022/07/05 14:18:58;;;;;;;7.17;4.12;;;;;;;32.76;25.79;99945.91;1770079;81;22461;-81
2022/07/05 14:22:03;;;;;;;15.13;4.30;;;;;;;32.69;25.91;99958.30;1770515;81;21232;-81
2022/07/05 14:25:10;;;;;;;7.90;4.33;;;;;;;32.61;25.88;99952.07;1769049;81;21185;-81
2022/07/05 14:28:15;;;;;;;5.42;3.83;;;;;;;32.56;26.19;99953.66;1770627;81;21220;-82
2022/07/05 14:31:21;;;;;;;12.30;4.03;;;;;;;32.52;26.20;99944.98;1770572;81;21850;-81
2022/07/05 14:34:30;;;;;;;8.70;4.10;;;;;;;32.49;26.33;99947.05;1769029;81;21799;-81
2022/07/05 14:37:37;;;;;;;13.40;3.75;;;;;;;32.45;26.40;99948.88;1770710;81;21189;-81
2022/07/05 14:40:42;;;;;;;8.10;3.60;;;;;;;32.39;26.56;99940.89;1770594;81;21240;-81